Time;durP1;ratioP1;P1;durP2;ratioP2;P2;SDS_P1;SDS_P2;PMS_P1;PMS_P2;Temp;Humidity;BMP_temperature;BMP_pressure;BME280_temperature;BME280_humidity;BME280_pressure;Samples;Min_cycle;Max_cycle;Signal;HPM_P1;HPM_P2
2023/03/09 00:03:01;;;;;;;19.05;9.73;;;;;;;0.53;100.00;99352.84;10399688;28;20042;-76
2023/03/09 00:08:01;;;;;;;17.65;9.25;;;;;;;0.50;100.00;99352.50;10397128;28;20041;-76
2023/03/09 00:13:02;;;;;;;20.65;9.75;;;;;;;0.47;100.00;99353.75;10381617;28;20108;-77
2023/03/09 00:18:02;;;;;;;15.95;9.10;;;;;;;0.46;100.00;99341.28;10398761;28;20060;-77
2023/03/09 00:23:08;;;;;;;14.45;9.02;;;;;;;0.45;100.00;99347.72;10372492;28;20045;-78
2023/03/09 00:28:09;;;;;;;19.80;9.40;;;;;;;0.45;100.00;99344.19;10374673;28;20041;-77
2023/03/09 00:33:09;;;;;;;17.85;9.02;;;;;;;0.35;100.00;99331.19;10375996;28;20065;-77
2023/03/09 00:38:09;;;;;;;16.70;9.35;;;;;;;0.41;100.00;99341.09;10358208;28;20046;-77
2023/03/09 00:43:10;;;;;;;17.60;9.32;;;;;;;0.40;100.00;99336.75;10340795;28;20470;-77
2023/03/09 00:48:10;;;;;;;16.88;9.95;;;;;;;0.34;100.00;99341.19;10340544;28;20057;-72
2023/03/09 00:53:11;;;;;;;14.93;8.23;;;;;;;0.34;100.00;99335.78;10357671;28;20038;-77
2023/03/09 00:58:11;;;;;;;17.83;9.23;;;;;;;0.39;100.00;99352.19;10374396;28;20034;-77
2023/03/09 01:03:12;;;;;;;14.85;9.00;;;;;;;0.31;100.00;99340.81;10357495;28;20041;-77
2023/03/09 01:08:12;;;;;;;19.33;10.65;;;;;;;0.28;100.00;99343.97;10340138;28;20054;-77
2023/03/09 01:13:13;;;;;;;16.38;8.48;;;;;;;0.29;100.00;99349.16;10356219;28;20041;-76
2023/03/09 01:18:14;;;;;;;17.43;9.27;;;;;;;0.16;100.00;99336.59;10339839;28;20038;-76
2023/03/09 01:23:14;;;;;;;16.85;9.68;;;;;;;0.13;100.00;99334.34;10339951;28;20107;-77
2023/03/09 01:28:14;;;;;;;20.63;10.02;;;;;;;0.09;100.00;99329.59;10354154;28;20030;-77
2023/03/09 01:33:15;;;;;;;20.20;10.40;;;;;;;-0.12;100.00;99309.22;10283938;28;20062;-76
2023/03/09 01:38:15;;;;;;;18.30;10.00;;;;;;;-0.23;100.00;99305.34;10354846;28;20034;-76
2023/03/09 01:43:31;;;;;;;19.65;10.65;;;;;;;-0.13;100.00;99331.88;10339911;28;20038;-76
2023/03/09 01:48:32;;;;;;;18.53;10.20;;;;;;;-0.19;100.00;99344.41;10394669;28;20132;-76
2023/03/09 01:53:32;;;;;;;21.15;10.93;;;;;;;-0.32;100.00;99321.03;10363045;28;20288;-76
2023/03/09 01:58:32;;;;;;;19.90;9.83;;;;;;;-0.30;100.00;99337.84;10379988;28;20080;-76
2023/03/09 02:03:35;;;;;;;18.30;10.90;;;;;;;-0.37;100.00;99320.88;10395000;28;20049;-76
2023/03/09 02:08:35;;;;;;;19.00;11.17;;;;;;;-0.33;100.00;99327.50;10388048;28;20053;-76
2023/03/09 02:13:45;;;;;;;21.85;10.65;;;;;;;-0.68;100.00;99273.91;10354240;28;20030;-77
2023/03/09 02:18:45;;;;;;;17.60;9.73;;;;;;;-0.33;100.00;99338.31;10314997;28;20034;-76
2023/03/09 02:24:10;;;;;;;23.77;11.43;;;;;;;-0.37;100.00;99338.94;10297699;28;20043;-76
2023/03/09 02:29:11;;;;;;;21.13;11.30;;;;;;;-0.34;100.00;99352.88;10299193;28;20058;-77
2023/03/09 02:34:12;;;;;;;22.67;11.35;;;;;;;-0.33;100.00;99369.91;10368178;28;20053;-73
2023/03/09 02:39:21;;;;;;;21.77;11.52;;;;;;;-0.51;100.00;99339.06;10360323;28;20034;-77
2023/03/09 02:44:22;;;;;;;24.83;12.35;;;;;;;-0.39;100.00;99366.22;10392310;28;20038;-76
2023/03/09 02:49:22;;;;;;;24.10;12.55;;;;;;;-0.38;100.00;99377.88;10366293;28;20029;-77
2023/03/09 02:54:23;;;;;;;23.23;12.07;;;;;;;-0.38;100.00;99400.31;10377918;28;20056;-77
2023/03/09 02:59:23;;;;;;;20.97;11.57;;;;;;;-0.36;100.00;99392.81;10392923;28;20510;-77
2023/03/09 03:04:24;;;;;;;25.40;12.90;;;;;;;-0.47;100.00;99385.44;10376288;28;20045;-77
2023/03/09 03:09:25;;;;;;;25.35;12.27;;;;;;;-0.39;100.00;99409.50;10374353;28;20042;-77
2023/03/09 03:14:26;;;;;;;27.67;12.97;;;;;;;-0.39;100.00;99412.19;10392283;28;20514;-78
2023/03/09 03:19:26;;;;;;;30.25;14.88;;;;;;;-0.37;100.00;99420.94;10376551;28;20486;-77
2023/03/09 03:24:27;;;;;;;24.70;13.52;;;;;;;-0.47;100.00;99412.47;10377094;28;20055;-77
2023/03/09 03:29:27;;;;;;;25.27;13.33;;;;;;;-0.39;100.00;99420.31;10341495;28;20095;-77
2023/03/09 03:34:28;;;;;;;29.10;13.60;;;;;;;-0.32;100.00;99437.31;10342110;28;20068;-76
2023/03/09 03:39:28;;;;;;;32.50;14.57;;;;;;;-0.36;100.00;99427.16;10375997;28;20060;-77
2023/03/09 03:44:29;;;;;;;29.23;15.35;;;;;;;-0.24;100.00;99434.34;10382419;28;20041;-77
2023/03/09 03:49:29;;;;;;;33.53;17.58;;;;;;;-0.24;100.00;99447.88;10393078;28;20038;-77
2023/03/09 03:54:30;;;;;;;37.80;17.65;;;;;;;-0.31;100.00;99441.69;10368198;28;20062;-77
2023/03/09 03:59:30;;;;;;;32.23;15.60;;;;;;;-0.35;100.00;99437.75;10330983;28;20050;-77
2023/03/09 04:04:31;;;;;;;29.98;15.55;;;;;;;-0.22;100.00;99445.78;10353037;28;20129;-77
2023/03/09 04:09:32;;;;;;;30.50;15.27;;;;;;;-0.25;100.00;99465.16;10390994;28;20497;-76
2023/03/09 04:14:36;;;;;;;27.13;13.95;;;;;;;-0.22;100.00;99462.00;10392137;28;20064;-75
2023/03/09 04:19:37;;;;;;;26.45;14.15;;;;;;;-0.22;100.00;99469.28;10364702;28;20107;-76
2023/03/09 04:24:37;;;;;;;29.33;13.70;;;;;;;-0.16;100.00;99479.25;10332435;28;20054;-77
2023/03/09 04:29:39;;;;;;;28.92;16.25;;;;;;;-0.19;100.00;99473.44;10339684;28;20038;-77
2023/03/09 04:34:40;;;;;;;27.95;13.65;;;;;;;-0.18;100.00;99465.09;10355978;28;20097;-77
2023/03/09 04:39:40;;;;;;;29.98;15.32;;;;;;;-0.12;100.00;99476.94;10368473;28;20041;-77
2023/03/09 04:44:40;;;;;;;23.90;12.60;;;;;;;-0.14;100.00;99484.44;10381887;28;20041;-76
2023/03/09 04:49:41;;;;;;;26.88;13.80;;;;;;;-0.22;100.00;99490.94;10413580;28;20060;-76
2023/03/09 04:54:42;;;;;;;28.17;15.23;;;;;;;-0.19;100.00;99495.06;10398775;28;20053;-76
2023/03/09 04:59:42;;;;;;;29.80;15.10;;;;;;;-0.21;100.00;99488.00;10376840;28;20099;-77
2023/03/09 05:04:43;;;;;;;30.15;15.40;;;;;;;-0.35;100.00;99472.91;10397302;28;20052;-77
2023/03/09 05:09:43;;;;;;;30.17;14.63;;;;;;;-0.29;100.00;99511.75;10380483;28;20044;-77
2023/03/09 05:14:44;;;;;;;26.25;14.18;;;;;;;-0.32;100.00;99545.47;10381087;28;20049;-77
2023/03/09 05:19:45;;;;;;;25.60;14.43;;;;;;;-0.38;100.00;99550.94;10380930;28;20041;-76
2023/03/09 05:24:45;;;;;;;31.97;15.90;;;;;;;-0.49;100.00;99538.91;10355867;28;20072;-77
2023/03/09 05:29:46;;;;;;;28.38;15.70;;;;;;;-0.41;100.00;99541.38;10394130;28;20041;-78
2023/03/09 05:34:47;;;;;;;31.13;15.88;;;;;;;-0.44;100.00;99529.09;10320693;28;20037;-77
2023/03/09 05:39:47;;;;;;;29.30;14.90;;;;;;;-0.47;100.00;99531.44;10338003;28;20042;-78
2023/03/09 05:44:48;;;;;;;33.57;15.67;;;;;;;-0.48;100.00;99545.97;10355378;28;20101;-78
2023/03/09 05:49:49;;;;;;;31.80;17.13;;;;;;;-0.49;100.00;99555.16;10356098;28;20040;-77
2023/03/09 05:54:49;;;;;;;29.65;16.55;;;;;;;-0.51;100.00;99559.94;10340025;28;20040;-78
2023/03/09 05:59:50;;;;;;;30.67;15.93;;;;;;;-0.55;100.00;99561.41;10353218;28;20048;-78
2023/03/09 06:04:51;;;;;;;29.90;16.30;;;;;;;-0.56;100.00;99575.94;10367770;28;20078;-72
2023/03/09 06:09:51;;;;;;;28.80;16.43;;;;;;;-0.55;100.00;99583.03;10320033;28;20577;-77
2023/03/09 06:14:52;;;;;;;31.85;16.40;;;;;;;-0.59;100.00;99576.38;10351930;28;20034;-78
2023/03/09 06:19:53;;;;;;;31.25;16.45;;;;;;;-0.53;100.00;99602.56;10325165;28;20090;-77
2023/03/09 06:24:54;;;;;;;33.30;17.30;;;;;;;-0.47;100.00;99613.34;10334398;28;20454;-77
2023/03/09 06:29:54;;;;;;;30.80;16.53;;;;;;;-0.52;100.00;99604.22;10368888;28;20037;-78
2023/03/09 06:34:55;;;;;;;31.83;17.03;;;;;;;-0.37;100.00;99615.63;10336033;28;20050;-77
2023/03/09 06:39:55;;;;;;;38.10;18.70;;;;;;;-0.34;100.00;99603.53;10336502;28;20057;-78
2023/03/09 06:44:56;;;;;;;29.75;16.05;;;;;;;-0.28;100.00;99611.63;10335751;28;20165;-78
2023/03/09 06:49:56;;;;;;;30.37;15.83;;;;;;;-0.22;100.00;99621.59;10338073;28;20072;-78
2023/03/09 06:54:57;;;;;;;29.97;15.87;;;;;;;-0.22;100.00;99632.41;10353878;28;20061;-78
2023/03/09 06:59:57;;;;;;;30.67;15.50;;;;;;;-0.22;100.00;99621.59;10335286;28;20041;-78
2023/03/09 07:04:58;;;;;;;30.70;16.03;;;;;;;-0.04;100.00;99634.41;10335634;28;20072;-78
2023/03/09 07:09:58;;;;;;;25.37;15.17;;;;;;;0.07;100.00;99638.31;10368713;28;20029;-77
2023/03/09 07:14:59;;;;;;;25.17;15.13;;;;;;;0.13;100.00;99640.16;10335801;28;20034;-77
2023/03/09 07:19:59;;;;;;;30.60;15.68;;;;;;;0.16;100.00;99639.69;10343177;28;20061;-78
2023/03/09 07:25:00;;;;;;;25.27;13.82;;;;;;;0.34;100.00;99657.13;10293069;28;20069;-78
2023/03/09 07:30:00;;;;;;;24.93;14.60;;;;;;;0.41;100.00;99655.19;10326611;28;20035;-78
2023/03/09 07:35:01;;;;;;;23.88;13.75;;;;;;;0.52;100.00;99649.09;10326463;28;20038;-78
2023/03/09 07:40:01;;;;;;;23.58;13.80;;;;;;;0.51;100.00;99663.66;10311616;28;20034;-78
2023/03/09 07:45:02;;;;;;;22.83;12.77;;;;;;;0.73;100.00;99685.81;10327514;28;20062;-78
2023/03/09 07:50:03;;;;;;;23.38;13.02;;;;;;;0.51;100.00;99657.41;10328457;28;20336;-78
2023/03/09 07:55:04;;;;;;;21.50;12.50;;;;;;;0.60;100.00;99707.59;10328503;28;20093;-79
2023/03/09 08:00:11;;;;;;;23.67;12.68;;;;;;;0.50;100.00;99699.09;10318086;28;20034;-78
2023/03/09 08:05:12;;;;;;;21.73;12.60;;;;;;;0.55;100.00;99691.97;10319258;28;20045;-78
2023/03/09 08:10:13;;;;;;;20.63;11.80;;;;;;;0.92;100.00;99723.81;10301350;28;20150;-77
2023/03/09 08:15:14;;;;;;;21.20;12.48;;;;;;;1.09;100.00;99713.28;10305804;28;20172;-78
2023/03/09 08:20:14;;;;;;;26.00;12.05;;;;;;;1.42;100.00;99721.94;10356568;28;20105;-78
2023/03/09 08:25:15;;;;;;;21.95;12.10;;;;;;;1.65;100.00;99716.94;10322607;28;20110;-78
2023/03/09 08:30:17;;;;;;;18.60;10.35;;;;;;;1.92;100.00;99731.91;10325621;28;20066;-78
2023/03/09 08:35:19;;;;;;;18.48;12.10;;;;;;;2.04;100.00;99737.41;10355072;28;20048;-78
2023/03/09 08:40:19;;;;;;;17.70;9.75;;;;;;;2.13;100.00;99755.06;10308027;28;20034;-78
2023/03/09 08:45:20;;;;;;;19.25;10.98;;;;;;;2.04;100.00;99761.81;10339103;28;20042;-77
2023/03/09 08:50:20;;;;;;;20.88;9.50;;;;;;;2.09;100.00;99778.28;10330473;28;20054;-78
2023/03/09 08:55:21;;;;;;;19.38;9.80;;;;;;;2.00;100.00;99772.31;10303222;28;20038;-77
2023/03/09 09:00:22;;;;;;;20.77;10.10;;;;;;;2.26;100.00;99794.81;10320205;28;20105;-78
2023/03/09 09:05:22;;;;;;;17.90;10.75;;;;;;;2.38;100.00;99803.84;10326257;28;20046;-78
2023/03/09 09:10:23;;;;;;;16.98;11.63;;;;;;;2.47;100.00;99796.22;10383409;28;20124;-77
2023/03/09 09:15:23;;;;;;;14.50;9.00;;;;;;;2.72;100.00;99792.56;10372775;28;20042;-77
2023/03/09 09:20:24;;;;;;;15.18;9.15;;;;;;;2.83;100.00;99779.03;10375610;28;20169;-77
2023/03/09 09:25:24;;;;;;;13.95;8.13;;;;;;;2.97;100.00;99787.81;10374387;28;20038;-77
2023/03/09 09:30:25;;;;;;;12.52;8.10;;;;;;;3.12;100.00;99801.03;10340037;28;20100;-77
2023/03/09 09:35:25;;;;;;;12.30;7.93;;;;;;;3.12;100.00;99778.41;10390811;28;20033;-77
2023/03/09 09:40:26;;;;;;;15.25;9.02;;;;;;;3.33;100.00;99790.63;10325172;28;20046;-77
2023/03/09 09:45:29;;;;;;;10.85;7.82;;;;;;;3.53;100.00;99801.22;10356198;28;20034;-74
2023/03/09 09:50:54;;;;;;;12.88;7.22;;;;;;;3.29;100.00;99744.06;10324555;28;20088;-77
2023/03/09 09:55:55;;;;;;;13.52;8.52;;;;;;;3.64;100.00;99778.63;10409935;28;20045;-77
2023/03/09 10:00:56;;;;;;;12.18;7.63;;;;;;;3.54;100.00;99794.72;10394980;28;20052;-75
2023/03/09 10:06:23;;;;;;;12.95;8.77;;;;;;;3.55;100.00;99802.63;10377954;28;20493;-75
2023/03/09 10:11:26;;;;;;;12.55;8.02;;;;;;;3.66;100.00;99806.44;10397368;28;20056;-76
2023/03/09 10:16:29;;;;;;;13.15;8.23;;;;;;;3.64;100.00;99781.38;10362669;28;20034;-75
2023/03/09 10:21:40;;;;;;;11.13;7.43;;;;;;;3.90;100.00;99803.72;10410120;28;20041;-76
2023/03/09 10:26:43;;;;;;;12.40;7.95;;;;;;;3.73;100.00;99801.72;10410939;28;20037;-76
2023/03/09 10:31:51;;;;;;;15.80;8.57;;;;;;;3.73;100.00;99826.22;10394896;28;20175;-76
2023/03/09 10:37:10;;;;;;;11.15;7.45;;;;;;;3.56;100.00;99833.41;10358901;28;20042;-76
2023/03/09 10:42:22;;;;;;;11.57;7.28;;;;;;;3.55;100.00;99812.69;10298800;28;20030;-76
2023/03/09 10:47:23;;;;;;;12.48;8.27;;;;;;;3.75;100.00;99824.09;10367072;28;20049;-76
2023/03/09 10:52:23;;;;;;;13.73;7.97;;;;;;;3.62;100.00;99822.41;10353273;28;20053;-76
2023/03/09 10:57:30;;;;;;;14.32;9.75;;;;;;;3.65;100.00;99851.06;10341735;28;20057;-75
2023/03/09 11:02:32;;;;;;;13.73;8.90;;;;;;;3.72;100.00;99835.47;10368410;28;20049;-75
2023/03/09 11:07:32;;;;;;;13.00;8.38;;;;;;;3.79;100.00;99843.50;10337761;28;20410;-75
2023/03/09 11:12:39;;;;;;;11.80;7.70;;;;;;;3.81;100.00;99844.91;10368582;28;20045;-75
2023/03/09 11:17:41;;;;;;;13.60;8.18;;;;;;;3.70;100.00;99831.28;10367761;28;20673;-75
2023/03/09 11:22:44;;;;;;;14.40;8.95;;;;;;;3.46;100.00;99786.91;10328874;28;20549;-75
2023/03/09 11:27:49;;;;;;;12.32;8.35;;;;;;;3.74;100.00;99844.22;10347001;28;20042;-74
2023/03/09 11:32:50;;;;;;;13.70;8.48;;;;;;;3.51;100.00;99811.50;10365335;28;20132;-74
2023/03/09 11:37:57;;;;;;;15.60;8.73;;;;;;;3.63;100.00;99839.56;10311804;28;20572;-74
2023/03/09 11:43:09;;;;;;;11.15;8.30;;;;;;;3.90;100.00;99844.56;10323885;28;20054;-74
2023/03/09 11:48:19;;;;;;;14.27;9.05;;;;;;;3.92;100.00;99837.00;10343052;28;20046;-74
2023/03/09 11:53:24;;;;;;;14.40;8.98;;;;;;;4.16;100.00;99830.50;10325986;28;20113;-74
2023/03/09 11:58:29;;;;;;;12.18;7.70;;;;;;;4.30;100.00;99836.53;10346924;28;20709;-74
2023/03/09 12:03:32;;;;;;;14.40;9.53;;;;;;;4.25;100.00;99829.06;10358707;28;20045;-75
2023/03/09 12:08:37;;;;;;;12.20;9.13;;;;;;;4.45;100.00;99866.84;10358691;28;20109;-74
2023/03/09 12:13:59;;;;;;;12.35;8.88;;;;;;;4.55;100.00;99844.44;10384503;28;20046;-75
2023/03/09 12:19:19;;;;;;;13.68;9.13;;;;;;;4.58;100.00;99849.38;10368015;28;20068;-74
2023/03/09 12:24:26;;;;;;;13.15;9.55;;;;;;;4.55;100.00;99849.06;10390565;28;20048;-73
2023/03/09 12:29:36;;;;;;;13.75;9.50;;;;;;;4.58;100.00;99832.22;10407938;28;20057;-74
2023/03/09 12:34:40;;;;;;;15.20;10.23;;;;;;;4.52;100.00;99823.09;10391377;28;20033;-74
2023/03/09 12:39:42;;;;;;;14.60;10.82;;;;;;;4.51;100.00;99821.44;10309268;28;20042;-74
2023/03/09 12:44:43;;;;;;;14.98;11.52;;;;;;;4.38;100.00;99840.75;10322294;28;20037;-74
2023/03/09 12:49:46;;;;;;;15.88;11.55;;;;;;;4.14;100.00;99826.34;10375200;28;20046;-74
2023/03/09 12:54:54;;;;;;;15.82;10.80;;;;;;;4.04;100.00;99816.03;10357004;28;20069;-74
2023/03/09 12:59:54;;;;;;;18.55;11.43;;;;;;;4.01;100.00;99824.69;10357283;28;20030;-75
2023/03/09 13:05:32;;;;;;;22.58;13.32;;;;;;;3.81;100.00;99809.53;10379553;28;20041;-74
2023/03/09 13:10:34;;;;;;;18.45;12.73;;;;;;;3.77;100.00;99805.63;10414378;28;20072;-74
2023/03/09 13:15:35;;;;;;;20.50;13.10;;;;;;;3.69;100.00;99803.25;10382641;28;20040;-74
2023/03/09 13:20:36;;;;;;;18.40;13.30;;;;;;;3.50;100.00;99804.41;10397147;28;20044;-73
2023/03/09 13:25:56;;;;;;;19.98;13.40;;;;;;;3.54;100.00;99827.38;10380905;28;20079;-74
2023/03/09 13:31:00;;;;;;;18.50;12.23;;;;;;;3.56;100.00;99833.41;10380202;28;20429;-75
2023/03/09 13:36:07;;;;;;;17.65;11.90;;;;;;;3.55;100.00;99839.91;10362722;28;20056;-74
2023/03/09 13:41:11;;;;;;;;;;;;;;;3.53;100.00;99831.16;10395934;28;20072;-74
2023/03/09 13:46:16;;;;;;;18.65;11.68;;;;;;;3.38;100.00;99810.66;10391158;28;19917;-74
2023/03/09 13:51:41;;;;;;;17.02;11.57;;;;;;;3.39;100.00;99836.81;10359357;28;20057;-74
2023/03/09 13:56:42;;;;;;;13.90;9.85;;;;;;;3.32;100.00;99808.03;10373084;28;20640;-75
2023/03/09 14:01:43;;;;;;;16.83;10.85;;;;;;;3.27;100.00;99803.31;10359791;28;20113;-75
2023/03/09 14:06:44;;;;;;;14.88;10.25;;;;;;;3.29;100.00;99803.91;10359391;28;20073;-73
2023/03/09 14:11:44;;;;;;;14.38;10.18;;;;;;;3.40;100.00;99810.41;10367456;28;20050;-75
2023/03/09 14:16:45;;;;;;;16.08;11.40;;;;;;;3.23;100.00;99794.78;10357812;28;20117;-74
2023/03/09 14:21:50;;;;;;;18.65;10.98;;;;;;;3.28;100.00;99813.09;10356627;28;20038;-75
2023/03/09 14:26:50;;;;;;;17.05;11.25;;;;;;;3.18;100.00;99804.69;10392844;28;20041;-75
2023/03/09 14:32:22;;;;;;;17.67;10.98;;;;;;;3.27;100.00;99803.31;10356619;28;20065;-74
2023/03/09 14:37:30;;;;;;;19.08;12.45;;;;;;;3.15;100.00;99791.56;10372258;28;20120;-75
2023/03/09 14:42:32;;;;;;;18.55;11.73;;;;;;;3.14;100.00;99789.88;10334904;28;20038;-74
2023/03/09 14:47:33;;;;;;;20.15;12.68;;;;;;;2.77;100.00;99711.16;10346488;28;20045;-74
2023/03/09 14:52:34;;;;;;;20.27;12.18;;;;;;;3.21;100.00;99763.44;10354677;28;20041;-73
2023/03/09 14:57:35;;;;;;;22.55;12.80;;;;;;;3.14;100.00;99732.78;10361843;28;20077;-73
2023/03/09 15:02:35;;;;;;;24.27;13.73;;;;;;;3.41;100.00;99753.06;10373157;28;20038;-73
2023/03/09 15:07:36;;;;;;;21.35;13.50;;;;;;;3.65;100.00;99755.78;10319539;28;20037;-72
2023/03/09 15:12:36;;;;;;;21.65;13.02;;;;;;;3.62;100.00;99748.09;10336775;28;20045;-72
2023/03/09 15:17:37;;;;;;;19.40;12.75;;;;;;;3.48;100.00;99749.41;10334944;28;20057;-73
2023/03/09 15:22:37;;;;;;;22.27;14.15;;;;;;;3.24;100.00;99746.63;10370354;28;20042;-72
2023/03/09 15:27:38;;;;;;;20.65;13.73;;;;;;;3.15;100.00;99764.38;10338846;28;20041;-71
2023/03/09 15:32:39;;;;;;;22.25;13.63;;;;;;;3.05;100.00;99769.53;10372122;28;20041;-72
2023/03/09 15:37:39;;;;;;;24.15;14.10;;;;;;;3.06;100.00;99777.47;10378083;28;20039;-73
2023/03/09 15:42:40;;;;;;;21.40;13.20;;;;;;;2.87;100.00;99776.66;10361946;28;20044;-72
2023/03/09 15:47:41;;;;;;;25.33;14.45;;;;;;;2.82;100.00;99777.38;10353371;28;20030;-73
2023/03/09 15:52:42;;;;;;;24.95;14.40;;;;;;;2.67;100.00;99773.41;10386599;28;20075;-73
2023/03/09 15:57:42;;;;;;;24.83;14.25;;;;;;;2.55;100.00;99770.63;10360200;28;20048;-73
2023/03/09 16:02:42;;;;;;;24.73;13.75;;;;;;;2.48;100.00;99762.59;10413030;28;20046;-73
2023/03/09 16:07:43;;;;;;;27.42;14.38;;;;;;;2.33;100.00;99757.50;10352512;28;20038;-73
2023/03/09 16:12:43;;;;;;;25.30;14.82;;;;;;;2.37;100.00;99785.06;10339072;28;20045;-74
2023/03/09 16:17:46;;;;;;;23.95;13.70;;;;;;;2.38;100.00;99756.84;10303927;28;20050;-72
2023/03/09 16:22:47;;;;;;;23.52;12.95;;;;;;;2.28;100.00;99768.25;10342300;28;20060;-76
2023/03/09 16:27:48;;;;;;;24.05;13.75;;;;;;;2.18;100.00;99766.06;10337572;28;20038;-73
2023/03/09 16:32:52;;;;;;;23.77;13.82;;;;;;;2.16;100.00;99765.44;10306563;28;20437;-74
2023/03/09 16:37:53;;;;;;;24.05;13.27;;;;;;;2.01;100.00;99743.28;10320884;28;20042;-75
2023/03/09 16:42:53;;;;;;;25.05;12.98;;;;;;;2.00;100.00;99764.16;10390339;28;20286;-75
2023/03/09 16:47:54;;;;;;;24.35;14.65;;;;;;;1.88;100.00;99765.97;10343213;28;20037;-74
2023/03/09 16:52:54;;;;;;;29.88;15.10;;;;;;;1.85;100.00;99743.88;10374585;28;20328;-75
2023/03/09 16:57:55;;;;;;;25.25;14.88;;;;;;;1.62;100.00;99729.06;10375947;28;20052;-74
2023/03/09 17:02:55;;;;;;;26.85;15.30;;;;;;;1.64;100.00;99748.69;10391656;28;20038;-74
2023/03/09 17:07:56;;;;;;;29.58;15.60;;;;;;;1.54;100.00;99738.31;10355915;28;20057;-75
2023/03/09 17:12:56;;;;;;;28.65;16.23;;;;;;;1.50;100.00;99747.97;10357413;28;20037;-75
2023/03/09 17:17:56;;;;;;;28.98;14.70;;;;;;;1.42;100.00;99750.94;10411820;28;20463;-76
2023/03/09 17:22:57;;;;;;;28.45;15.45;;;;;;;1.38;100.00;99734.28;10429208;28;20079;-75
2023/03/09 17:27:58;;;;;;;29.05;15.93;;;;;;;1.39;100.00;99735.13;10418752;28;20117;-75
2023/03/09 17:32:58;;;;;;;31.43;16.67;;;;;;;1.27;100.00;99721.47;10388234;28;20042;-76
2023/03/09 17:37:59;;;;;;;32.65;17.05;;;;;;;1.29;100.00;99726.69;10379474;28;20037;-76
2023/03/09 17:43:00;;;;;;;32.77;17.30;;;;;;;1.31;100.00;99733.53;10379611;28;20105;-75
2023/03/09 17:48:01;;;;;;;33.65;18.15;;;;;;;0.92;100.00;99670.47;10395548;28;20022;-77
2023/03/09 17:53:02;;;;;;;31.77;16.33;;;;;;;1.29;100.00;99741.06;10377923;28;20401;-77
2023/03/09 17:58:03;;;;;;;33.97;17.77;;;;;;;1.15;100.00;99734.91;10379709;28;20038;-77
2023/03/09 18:03:04;;;;;;;32.95;17.08;;;;;;;1.23;100.00;99741.13;10380299;28;20045;-76
2023/03/09 18:08:05;;;;;;;33.80;17.98;;;;;;;0.78;100.00;99674.31;10394763;28;20064;-76
2023/03/09 18:13:06;;;;;;;35.33;18.65;;;;;;;1.03;100.00;99736.66;10411374;28;20052;-77
2023/03/09 18:18:07;;;;;;;35.80;16.88;;;;;;;1.05;100.00;99722.91;10377589;28;20794;-76
2023/03/09 18:23:07;;;;;;;34.78;18.98;;;;;;;1.11;100.00;99732.84;10360978;28;20566;-73
2023/03/09 18:28:08;;;;;;;37.00;18.70;;;;;;;0.92;100.00;99692.13;10373789;28;20239;-75
2023/03/09 18:33:09;;;;;;;32.08;18.85;;;;;;;1.02;100.00;99707.09;10419328;28;20041;-75
2023/03/09 18:38:13;;;;;;;42.47;19.63;;;;;;;0.94;100.00;99691.91;10399205;28;20041;-75
2023/03/09 18:43:13;;;;;;;36.63;19.33;;;;;;;0.88;100.00;99680.06;10377513;28;20037;-75
2023/03/09 18:48:14;;;;;;;36.58;18.80;;;;;;;0.73;100.00;99649.78;10393188;28;20038;-75
2023/03/09 18:53:15;;;;;;;44.30;20.25;;;;;;;0.86;100.00;99676.75;10380346;28;20041;-75
2023/03/09 18:58:19;;;;;;;39.67;19.38;;;;;;;0.82;100.00;99663.88;10373915;28;20087;-75
2023/03/09 19:03:20;;;;;;;40.95;20.63;;;;;;;0.77;100.00;99662.66;10403792;28;20048;-77
2023/03/09 19:08:20;;;;;;;47.10;21.02;;;;;;;0.74;100.00;99667.69;10376147;28;20044;-75
2023/03/09 19:13:21;;;;;;;41.72;19.25;;;;;;;0.76;100.00;99660.97;10359543;28;20093;-75
2023/03/09 19:18:21;;;;;;;37.92;19.77;;;;;;;0.71;100.00;99643.75;10401664;28;20029;-75
2023/03/09 19:23:22;;;;;;;51.58;23.38;;;;;;;0.70;100.00;99634.78;10390561;28;20041;-76
2023/03/09 19:28:27;;;;;;;43.25;21.73;;;;;;;0.63;100.00;99617.75;10409931;28;20038;-77
2023/03/09 19:33:28;;;;;;;47.47;21.58;;;;;;;0.65;100.00;99617.53;10363724;28;20052;-77
2023/03/09 19:38:28;;;;;;;45.78;22.40;;;;;;;0.69;100.00;99614.16;10392687;28;20041;-77
2023/03/09 19:43:29;;;;;;;51.47;23.20;;;;;;;0.69;100.00;99600.63;10374564;28;20041;-78
2023/03/09 19:48:30;;;;;;;50.90;22.85;;;;;;;0.58;100.00;99574.25;10372791;28;20041;-77
2023/03/09 19:53:30;;;;;;;56.50;25.92;;;;;;;0.55;100.00;99561.97;10376822;28;20049;-77
2023/03/09 19:58:31;;;;;;;59.53;26.60;;;;;;;0.56;100.00;99558.22;10368361;28;20041;-77
2023/03/09 20:03:32;;;;;;;63.15;27.25;;;;;;;0.53;100.00;99547.00;10366142;28;20034;-78
2023/03/09 20:08:33;;;;;;;63.53;26.63;;;;;;;0.49;100.00;99522.22;10386343;28;20088;-79
2023/03/09 20:13:37;;;;;;;66.25;25.48;;;;;;;0.59;100.00;99525.28;10382920;28;20056;-79
2023/03/09 20:18:37;;;;;;;60.88;26.60;;;;;;;0.64;100.00;99529.19;10429158;28;20055;-79
2023/03/09 20:23:38;;;;;;;60.88;25.00;;;;;;;0.53;100.00;99503.66;10438219;28;20048;-79
2023/03/09 20:28:39;;;;;;;59.63;25.48;;;;;;;0.53;100.00;99499.06;10423539;28;20033;-79
2023/03/09 20:33:39;;;;;;;64.00;27.20;;;;;;;0.54;100.00;99497.22;10437400;28;20044;-80
2023/03/09 20:38:40;;;;;;;67.28;27.70;;;;;;;0.64;100.00;99505.66;10430007;28;20160;-79
2023/03/09 20:43:40;;;;;;;60.70;26.60;;;;;;;0.64;100.00;99504.81;10370381;28;20049;-82
2023/03/09 20:48:41;;;;;;;67.90;29.08;;;;;;;0.64;100.00;99494.84;10344723;28;20042;-80
2023/03/09 20:53:41;;;;;;;67.05;27.63;;;;;;;0.62;100.00;99480.69;10347038;28;20118;-79
2023/03/09 20:58:42;;;;;;;56.33;26.23;;;;;;;0.48;100.00;99463.72;10374658;28;20056;-78
2023/03/09 21:03:43;;;;;;;69.72;27.50;;;;;;;0.52;100.00;99470.34;10338651;28;20038;-77
2023/03/09 21:08:44;;;;;;;72.60;29.30;;;;;;;0.56;100.00;99460.72;10329147;28;20065;-77
2023/03/09 21:13:44;;;;;;;71.73;26.93;;;;;;;0.42;100.00;99445.66;10372564;28;20034;-78
2023/03/09 21:18:45;;;;;;;61.87;26.53;;;;;;;0.48;100.00;99458.31;10347335;28;20050;-77
2023/03/09 21:23:46;;;;;;;64.17;25.97;;;;;;;0.38;100.00;99436.34;10400232;28;20038;-75
2023/03/09 21:28:47;;;;;;;58.35;25.30;;;;;;;0.39;100.00;99437.97;10370475;28;20048;-73
2023/03/09 21:33:47;;;;;;;59.75;26.33;;;;;;;0.13;100.00;99388.47;10380006;28;20052;-74
2023/03/09 21:38:48;;;;;;;66.57;26.25;;;;;;;0.19;100.00;99409.22;10361563;28;20072;-73
2023/03/09 21:43:50;;;;;;;70.20;28.27;;;;;;;0.20;100.00;99400.03;10392113;28;20044;-72
2023/03/09 21:48:52;;;;;;;64.63;27.43;;;;;;;0.18;100.00;99391.31;10379991;28;20040;-73
2023/03/09 21:53:53;;;;;;;62.03;26.97;;;;;;;0.16;100.00;99382.59;10383199;28;20071;-72
2023/03/09 21:58:55;;;;;;;72.45;29.33;;;;;;;0.02;100.00;99345.88;10372619;28;20098;-73
2023/03/09 22:03:56;;;;;;;72.57;28.97;;;;;;;0.10;100.00;99353.72;10372025;28;20088;-75
2023/03/09 22:08:56;;;;;;;69.20;29.45;;;;;;;0.11;100.00;99339.16;10382729;28;20064;-73
2023/03/09 22:13:57;;;;;;;67.77;29.03;;;;;;;0.01;100.00;99321.78;10377913;28;20049;-73
2023/03/09 22:18:59;;;;;;;62.00;26.93;;;;;;;-0.04;100.00;99306.22;10378705;28;20041;-73
2023/03/09 22:24:00;;;;;;;62.17;26.80;;;;;;;-0.01;100.00;99303.06;10434897;28;20036;-73
2023/03/09 22:29:00;;;;;;;56.93;24.57;;;;;;;-0.11;100.00;99284.63;10453782;28;20038;-73
2023/03/09 22:34:02;;;;;;;61.20;25.60;;;;;;;0.03;100.00;99288.03;10453391;28;20041;-73
2023/03/09 22:39:04;;;;;;;66.70;27.20;;;;;;;-0.02;100.00;99274.34;10451858;28;20119;-73
2023/03/09 22:44:04;;;;;;;64.88;27.17;;;;;;;-0.10;100.00;99253.81;10435150;28;20041;-73
2023/03/09 22:49:05;;;;;;;61.33;24.17;;;;;;;-0.14;100.00;99249.91;10434907;28;20246;-72
2023/03/09 22:54:05;;;;;;;59.37;25.03;;;;;;;-0.13;100.00;99245.31;10436120;28;20032;-73